Newfields, New Hampshire
Current Conditions -  °F | °C
As of 5:58 PM on Saturday 20 Dec 2014 (Local Time) from KPSM Reporting Station
Overcast Overcast  
Wind Chill: 24°   Ceiling: 3400
Heat Index: 31°   Visibility: 10mi
Dew Point: 24°   Wind: 7mph
Humidity: 74%   Direction: 40°NE
Pressure: 30.3"   Gusts: NA
Location:  43.04°N, 70.94°W
Report Text: KPSM 202258Z 04006KT 10SM OVC034 00/M05 A3030 RMK AO2A SLP265 T10051046
Loading
Personal Weather Stations






























Interactive Weather Map New forecast layout! Learn more

10-Day Weather Forecast

Advertisements
Track Severe Weather on mobile